createdAt,value
2018-11-14T00:04:23.642Z,5.73
2018-11-14T00:10:26.368Z,5.30
2018-11-14T00:16:29.697Z,5.47
2018-11-14T00:22:32.303Z,5.43
2018-11-14T00:28:34.844Z,4.97
2018-11-14T00:34:37.414Z,5.03
2018-11-14T00:40:39.861Z,5.20
2018-11-14T00:46:42.517Z,5.37
2018-11-14T00:52:45.472Z,5.63
2018-11-14T00:58:48.260Z,5.27
2018-11-14T01:04:50.754Z,5.00
2018-11-14T01:10:53.864Z,5.50
2018-11-14T01:23:06.104Z,5.90
2018-11-14T01:29:08.652Z,5.50
2018-11-14T01:35:11.200Z,5.53
2018-11-14T01:41:13.825Z,5.87
2018-11-14T01:47:16.226Z,5.37
2018-11-14T01:53:18.678Z,5.50
2018-11-14T01:59:21.212Z,6.13
2018-11-14T02:05:23.862Z,5.00
2018-11-14T02:11:26.287Z,6.40
2018-11-14T02:17:28.753Z,6.43
2018-11-14T02:23:31.328Z,5.90
2018-11-14T02:29:33.935Z,5.93
2018-11-14T02:35:36.629Z,5.23
2018-11-14T02:41:39.176Z,6.87
2018-11-14T02:47:41.649Z,6.10
2018-11-14T02:53:44.258Z,6.70
2018-11-14T02:59:46.762Z,6.73
2018-11-14T03:05:49.548Z,7.47
2018-11-14T03:11:51.923Z,7.07
2018-11-14T03:17:54.379Z,6.57
2018-11-14T03:23:56.959Z,7.17
2018-11-14T03:29:59.512Z,8.17
2018-11-14T03:36:07.590Z,6.90
2018-11-14T03:42:10.040Z,7.53
2018-11-14T03:48:12.840Z,7.40
2018-11-14T03:54:15.371Z,7.40
2018-11-14T04:00:21.358Z,7.93
2018-11-14T04:06:23.829Z,7.57
2018-11-14T04:12:26.325Z,7.70
2018-11-14T04:18:29.046Z,8.33
2018-11-14T04:24:31.674Z,7.90
2018-11-14T04:30:34.162Z,7.87
2018-11-14T04:36:36.656Z,8.33
2018-11-14T04:42:39.311Z,8.77
2018-11-14T04:48:41.815Z,8.10
2018-11-14T04:54:44.205Z,8.43
2018-11-14T05:00:46.589Z,8.97
2018-11-14T05:06:49.035Z,8.90
2018-11-14T05:12:52.224Z,9.27
2018-11-14T05:18:54.638Z,9.60
2018-11-14T05:24:57.103Z,9.57
2018-11-14T05:30:59.613Z,9.10
2018-11-14T05:37:02.847Z,9.80
2018-11-14T05:43:05.462Z,10.53
2018-11-14T05:49:08.027Z,12.80
2018-11-14T05:55:11.485Z,21.37
2018-11-14T06:01:14.184Z,17.80
2018-11-14T06:07:16.825Z,13.30
2018-11-14T06:13:19.926Z,12.60
2018-11-14T06:19:22.478Z,18.43
2018-11-14T06:25:33.844Z,14.67
2018-11-14T06:31:36.514Z,11.23
2018-11-14T06:37:38.928Z,11.30
2018-11-14T06:43:41.473Z,12.10
2018-11-14T06:49:43.990Z,11.50
2018-11-14T06:55:46.592Z,11.93
2018-11-14T07:01:48.992Z,13.60
2018-11-14T07:10:28.291Z,10.00
2018-11-14T07:16:30.951Z,10.20
2018-11-14T07:22:33.448Z,9.50
2018-11-14T07:28:36.064Z,11.67
2018-11-14T07:34:43.751Z,13.50
2018-11-14T07:40:46.389Z,11.57
2018-11-14T07:46:48.903Z,13.07
2018-11-14T07:52:51.342Z,18.67
2018-11-14T07:58:54.230Z,15.80
2018-11-14T08:04:56.734Z,24.33
2018-11-14T08:10:59.573Z,13.70
2018-11-14T08:17:02.063Z,16.13
2018-11-14T08:23:04.917Z,11.13
2018-11-14T08:29:07.665Z,21.73
2018-11-14T08:35:10.765Z,26.63
2018-11-14T08:41:15.846Z,10.20
2018-11-14T08:47:18.434Z,9.03
2018-11-14T08:53:21.125Z,8.20
2018-11-14T08:59:23.562Z,6.87
2018-11-14T09:05:26.009Z,6.77
2018-11-14T09:11:28.761Z,6.57
2018-11-14T09:17:32.297Z,7.60
2018-11-14T09:23:35.173Z,6.57
2018-11-14T09:29:37.785Z,6.17
2018-11-14T09:35:40.158Z,6.50
2018-11-14T09:41:42.705Z,6.67
2018-11-14T09:47:45.411Z,6.60
2018-11-14T09:53:47.975Z,6.50
2018-11-14T09:59:51.235Z,6.37
2018-11-14T10:05:54.026Z,6.57
2018-11-14T10:11:56.540Z,7.03
2018-11-14T10:17:58.921Z,6.90
2018-11-14T10:24:01.540Z,6.93
2018-11-14T10:30:05.150Z,7.30
2018-11-14T10:36:07.609Z,7.87
2018-11-14T10:42:10.416Z,8.67
2018-11-14T10:48:13.046Z,8.43
2018-11-14T10:54:15.686Z,9.17
2018-11-14T11:00:29.795Z,8.37
2018-11-14T11:06:37.951Z,8.43
2018-11-14T11:12:46.088Z,9.07
2018-11-14T11:18:49.221Z,8.07
2018-11-14T11:24:52.011Z,6.97
2018-11-14T11:30:54.577Z,23.30
2018-11-14T11:36:57.513Z,6.00
2018-11-14T11:43:00.417Z,5.20
2018-11-14T11:49:02.851Z,15.03
2018-11-14T11:55:05.999Z,8.23
2018-11-14T12:01:08.614Z,3.10
2018-11-14T12:07:11.500Z,3.47
2018-11-14T12:13:14.516Z,2.57
2018-11-14T12:19:17.654Z,13.23
2018-11-14T12:25:20.007Z,3.03
2018-11-14T12:31:22.463Z,2.80
2018-11-14T12:37:24.980Z,2.40
2018-11-14T12:43:27.680Z,2.57
2018-11-14T12:49:30.762Z,2.60
2018-11-14T12:55:33.600Z,2.70
2018-11-14T13:01:36.139Z,2.40
2018-11-14T13:07:39.027Z,2.10
2018-11-14T13:13:46.793Z,1.97
2018-11-14T13:19:49.811Z,2.63
2018-11-14T13:25:52.334Z,2.27
2018-11-14T13:31:54.797Z,2.50
2018-11-14T13:37:57.290Z,2.07
2018-11-14T13:43:59.707Z,2.63
2018-11-14T13:50:02.325Z,2.60
2018-11-14T13:56:05.126Z,2.67
2018-11-14T14:02:07.982Z,2.90
2018-11-14T14:08:10.526Z,2.20
2018-11-14T14:14:15.534Z,2.93
2018-11-14T14:20:18.637Z,2.70
2018-11-14T14:26:21.091Z,2.70
2018-11-14T14:32:23.664Z,2.77
2018-11-14T14:38:26.062Z,3.30
2018-11-14T14:44:28.649Z,2.80
2018-11-14T14:50:31.451Z,2.70
2018-11-14T14:56:34.136Z,2.50
2018-11-14T15:02:36.553Z,2.50
2018-11-14T15:11:11.052Z,2.57
2018-11-14T15:17:13.605Z,2.87
2018-11-14T15:23:15.992Z,2.83
2018-11-14T15:29:18.536Z,2.97
2018-11-14T15:35:21.884Z,3.20
2018-11-14T15:41:24.413Z,3.50
2018-11-14T15:47:26.815Z,2.90
2018-11-14T15:53:29.682Z,3.63
2018-11-14T15:59:32.342Z,3.47
2018-11-14T16:05:34.798Z,3.77
2018-11-14T16:11:37.261Z,3.73
2018-11-14T16:17:41.459Z,3.77
2018-11-14T16:23:44.008Z,4.53
2018-11-14T16:29:46.639Z,3.93
2018-11-14T16:35:50.419Z,4.60
2018-11-14T16:41:53.371Z,4.60
2018-11-14T16:47:56.957Z,4.00
2018-11-14T16:53:59.783Z,4.07
2018-11-14T17:00:02.411Z,4.67
2018-11-14T17:06:04.893Z,4.00
2018-11-14T17:12:07.350Z,3.87
2018-11-14T17:18:09.799Z,4.20
2018-11-14T17:24:12.388Z,5.10
2018-11-14T17:30:17.258Z,5.23
2018-11-14T17:36:19.608Z,4.57
2018-11-14T17:42:22.321Z,4.67
2018-11-14T17:48:24.965Z,5.47
2018-11-14T17:54:27.395Z,5.47
2018-11-14T18:00:31.000Z,4.80
2018-11-14T18:06:33.435Z,6.23
2018-11-14T18:12:36.009Z,4.43
2018-11-14T18:18:38.535Z,5.30
2018-11-14T18:24:41.002Z,4.37
2018-11-14T18:30:43.670Z,4.40
2018-11-14T18:36:46.245Z,4.70
2018-11-14T18:42:49.088Z,4.20
2018-11-14T18:48:52.042Z,5.17
2018-11-14T18:54:54.487Z,4.90
2018-11-14T19:00:57.159Z,5.23
2018-11-14T19:07:00.153Z,3.70
2018-11-14T19:13:02.726Z,4.17
2018-11-14T19:19:05.997Z,4.00
2018-11-14T19:25:10.853Z,3.43
2018-11-14T19:33:48.176Z,3.77
2018-11-14T19:39:51.412Z,3.43
2018-11-14T19:45:54.057Z,4.00
2018-11-14T19:51:56.885Z,4.63
2018-11-14T19:58:00.739Z,4.23
2018-11-14T20:04:03.387Z,4.30
2018-11-14T20:19:45.938Z,4.50
2018-11-14T20:25:48.522Z,4.30
2018-11-14T20:31:51.240Z,5.03
2018-11-14T20:37:53.936Z,4.77
2018-11-14T20:43:56.351Z,5.70
2018-11-14T20:49:59.219Z,4.77
2018-11-14T20:56:01.709Z,5.33
2018-11-14T21:02:04.565Z,6.03
2018-11-14T21:08:07.456Z,5.50
2018-11-14T21:14:11.168Z,6.53
2018-11-14T21:20:13.905Z,6.83
2018-11-14T21:26:16.646Z,7.00
2018-11-14T21:32:19.578Z,7.37
2018-11-14T21:38:23.318Z,7.20
2018-11-14T21:44:25.820Z,7.50
2018-11-14T21:50:29.243Z,7.63
2018-11-14T21:56:31.998Z,7.90
2018-11-14T22:02:35.083Z,8.40
2018-11-14T22:08:37.691Z,9.50
2018-11-14T22:14:40.201Z,9.57
2018-11-14T22:20:42.664Z,9.77
2018-11-14T22:26:45.570Z,9.50
2018-11-14T22:32:48.082Z,9.90
2018-11-14T22:38:50.864Z,10.97
2018-11-14T22:44:53.690Z,11.57
2018-11-14T22:50:56.403Z,11.93
2018-11-14T22:56:59.187Z,11.70
2018-11-14T23:03:02.654Z,13.23
2018-11-14T23:09:08.206Z,13.43
2018-11-14T23:15:10.892Z,14.60
2018-11-14T23:21:13.385Z,14.90
2018-11-14T23:27:15.836Z,15.77
2018-11-14T23:33:18.247Z,16.43
2018-11-14T23:39:20.846Z,16.57
2018-11-14T23:45:24.178Z,15.80
2018-11-14T23:51:26.630Z,16.23
2018-11-14T23:57:29.109Z,16.27
